<?xml version="1.0" encoding="UTF-8" standalone="no" ?>
<gpx xmlns="http://www.topografix.com/GPX/1/1" xmlns:xsi="http://www.w3.org/2001/XMLSchema-instance" xsi:schemaLocation="http://www.topografix.com/GPX/1/1 http://www.topografix.com/GPX/1/1/gpx.xsd" version="1.1" creator="VisuGPX - https://www.visugpx.com">
  <metadata>
    <name>gr36</name>
  </metadata>
  <trk>
    <name><![CDATA[GR36 De la Manche aux Pyrénées (2020)]]></name>
    <trkseg>
      <trkpt lat="49.27829" lon="-0.25033">
        <ele>4.035</ele>
        <time>2016-05-31T16:53:45Z</time>
      </trkpt>
      <trkpt lat="49.27829" lon="-0.25033">
        <ele>4.035</ele>
        <time>2016-05-31T16:53:45Z</time>
      </trkpt>
      <trkpt lat="49.27829" lon="-0.25033">
        <ele>4.086</ele>
        <time>2016-05-31T16:53:45Z</time>
      </trkpt>
      <trkpt lat="49.27829" lon="-0.25033">
        <ele>4.014</ele>
        <time>2016-05-31T16:53:45Z</time>
      </trkpt>
      <trkpt lat="49.27274" lon="-0.25183">
        <ele>5.008</ele>
        <time>2016-05-31T16:54:05Z</time>
      </trkpt>
      <trkpt lat="49.27239" lon="-0.2521">
        <ele>4.049</ele>
        <time>2016-05-31T16:54:25Z</time>
      </trkpt>
      <trkpt lat="49.27215" lon="-0.25194">
        <ele>3.745</ele>
        <time>2016-05-31T16:54:45Z</time>
      </trkpt>
      <trkpt lat="49.271" lon="-0.25224">
        <ele>2.19</ele>
        <time>2016-05-31T16:55:05Z</time>
      </trkpt>
      <trkpt lat="49.27039" lon="-0.25222">
        <ele>3.643</ele>
        <time>2016-05-31T16:55:25Z</time>
      </trkpt>
      <trkpt lat="49.26423" lon="-0.25395">
        <ele>3.669</ele>
        <time>2016-05-31T16:55:45Z</time>
      </trkpt>
      <trkpt lat="49.26221" lon="-0.25503">
        <ele>2.141</ele>
        <time>2016-05-31T16:56:05Z</time>
      </trkpt>
      <trkpt lat="49.25981" lon="-0.25696">
        <ele>3.467</ele>
        <time>2016-05-31T16:56:25Z</time>
      </trkpt>
      <trkpt lat="49.25826" lon="-0.25854">
        <ele>5.556</ele>
        <time>2016-05-31T16:56:45Z</time>
      </trkpt>
      <trkpt lat="49.25738" lon="-0.26056">
        <ele>9.247</ele>
        <time>2016-05-31T16:57:05Z</time>
      </trkpt>
      <trkpt lat="49.25644" lon="-0.26324">
        <ele>10.229</ele>
        <time>2016-05-31T16:57:25Z</time>
      </trkpt>
      <trkpt lat="49.25558" lon="-0.26483">
        <ele>10.021</ele>
        <time>2016-05-31T16:57:45Z</time>
      </trkpt>
      <trkpt lat="49.25446" lon="-0.26616">
        <ele>6.808</ele>
        <time>2016-05-31T16:58:05Z</time>
      </trkpt>
      <trkpt lat="49.25215" lon="-0.26806">
        <ele>8.25</ele>
        <time>2016-05-31T16:58:25Z</time>
      </trkpt>
      <trkpt lat="49.2473" lon="-0.27174">
        <ele>0.076</ele>
        <time>2016-05-31T16:58:45Z</time>
      </trkpt>
      <trkpt lat="49.24633" lon="-0.27227">
        <ele>2.961</ele>
        <time>2016-05-31T16:59:05Z</time>
      </trkpt>
      <trkpt lat="49.2435" lon="-0.27443">
        <ele>3.054</ele>
        <time>2016-05-31T16:59:25Z</time>
      </trkpt>
      <trkpt lat="49.24255" lon="-0.27475">
        <ele>4.19</ele>
        <time>2016-05-31T16:59:45Z</time>
      </trkpt>
      <trkpt lat="49.24185" lon="-0.27257">
        <ele>4.492</ele>
        <time>2016-05-31T17:00:05Z</time>
      </trkpt>
      <trkpt lat="49.24148" lon="-0.27166">
        <ele>1.468</ele>
        <time>2016-05-31T17:00:25Z</time>
      </trkpt>
      <trkpt lat="49.24011" lon="-0.2661">
        <ele>2.347</ele>
        <time>2016-05-31T17:00:45Z</time>
      </trkpt>
      <trkpt lat="49.23457" lon="-0.27078">
        <ele>2.639</ele>
        <time>2016-05-31T17:01:05Z</time>
      </trkpt>
      <trkpt lat="49.2329" lon="-0.27258">
        <ele>3.001</ele>
        <time>2016-05-31T17:01:25Z</time>
      </trkpt>
      <trkpt lat="49.23191" lon="-0.27322">
        <ele>5.621</ele>
        <time>2016-05-31T17:01:45Z</time>
      </trkpt>
      <trkpt lat="49.23039" lon="-0.27517">
        <ele>5.408</ele>
        <time>2016-05-31T17:02:05Z</time>
      </trkpt>
      <trkpt lat="49.22772" lon="-0.27809">
        <ele>4.349</ele>
        <time>2016-05-31T17:02:25Z</time>
      </trkpt>
      <trkpt lat="49.22715" lon="-0.27846">
        <ele>5.515</ele>
        <time>2016-05-31T17:02:45Z</time>
      </trkpt>
      <trkpt lat="49.22391" lon="-0.27979">
        <ele>7.12</ele>
        <time>2016-05-31T17:03:05Z</time>
      </trkpt>
      <trkpt lat="49.22363" lon="-0.27901">
        <ele>14.713</ele>
        <time>2016-05-31T17:03:25Z</time>
      </trkpt>
      <trkpt lat="49.22372" lon="-0.27808">
        <ele>24.759</ele>
        <time>2016-05-31T17:03:45Z</time>
      </trkpt>
      <trkpt lat="49.22345" lon="-0.2781">
        <ele>25.031</ele>
        <time>2016-05-31T17:04:05Z</time>
      </trkpt>
      <trkpt lat="49.22301" lon="-0.279">
        <ele>24.137</ele>
        <time>2016-05-31T17:04:25Z</time>
      </trkpt>
      <trkpt lat="49.22245" lon="-0.28018">
        <ele>22.046</ele>
        <time>2016-05-31T17:04:45Z</time>
      </trkpt>
      <trkpt lat="49.22189" lon="-0.28176">
        <ele>18.931</ele>
        <time>2016-05-31T17:05:05Z</time>
      </trkpt>
      <trkpt lat="49.22178" lon="-0.28257">
        <ele>17.561</ele>
        <time>2016-05-31T17:05:25Z</time>
      </trkpt>
      <trkpt lat="49.22137" lon="-0.28355">
        <ele>18.807</ele>
        <time>2016-05-31T17:05:45Z</time>
      </trkpt>
      <trkpt lat="49.22087" lon="-0.28439">
        <ele>19.708</ele>
        <time>2016-05-31T17:06:05Z</time>
      </trkpt>
      <trkpt lat="49.22027" lon="-0.28487">
        <ele>22.069</ele>
        <time>2016-05-31T17:06:25Z</time>
      </trkpt>
      <trkpt lat="49.21923" lon="-0.28707">
        <ele>20.345</ele>
        <time>2016-05-31T17:06:45Z</time>
      </trkpt>
      <trkpt lat="49.21833" lon="-0.28837">
        <ele>19.89</ele>
        <time>2016-05-31T17:07:05Z</time>
      </trkpt>
      <trkpt lat="49.21686" lon="-0.291">
        <ele>16.493</ele>
        <time>2016-05-31T17:07:25Z</time>
      </trkpt>
      <trkpt lat="49.21652" lon="-0.29124">
        <ele>17.939</ele>
        <time>2016-05-31T17:07:45Z</time>
      </trkpt>
      <trkpt lat="49.21691" lon="-0.29202">
        <ele>7.291</ele>
        <time>2016-05-31T17:08:05Z</time>
      </trkpt>
      <trkpt lat="49.21635" lon="-0.29309">
        <ele>8.677</ele>
        <time>2016-05-31T17:08:25Z</time>
      </trkpt>
      <trkpt lat="49.21569" lon="-0.2933">
        <ele>5.856</ele>
        <time>2016-05-31T17:08:45Z</time>
      </trkpt>
      <trkpt lat="49.21455" lon="-0.2938">
        <ele>7.639</ele>
        <time>2016-05-31T17:09:05Z</time>
      </trkpt>
      <trkpt lat="49.21333" lon="-0.29477">
        <ele>13.301</ele>
        <time>2016-05-31T17:09:25Z</time>
      </trkpt>
      <trkpt lat="49.21263" lon="-0.29503">
        <ele>9.721</ele>
        <time>2016-05-31T17:09:45Z</time>
      </trkpt>
      <trkpt lat="49.2126" lon="-0.29477">
        <ele>13.008</ele>
        <time>2016-05-31T17:10:05Z</time>
      </trkpt>
      <trkpt lat="49.21143" lon="-0.29528">
        <ele>19.099</ele>
        <time>2016-05-31T17:10:25Z</time>
      </trkpt>
      <trkpt lat="49.21106" lon="-0.29542">
        <ele>21.695</ele>
        <time>2016-05-31T17:10:45Z</time>
      </trkpt>
      <trkpt lat="49.20988" lon="-0.29678">
        <ele>24.17</ele>
        <time>2016-05-31T17:11:05Z</time>
      </trkpt>
      <trkpt lat="49.2092" lon="-0.29809">
        <ele>25.723</ele>
        <time>2016-05-31T17:11:25Z</time>
      </trkpt>
      <trkpt lat="49.20825" lon="-0.30077">
        <ele>24.879</ele>
        <time>2016-05-31T17:11:45Z</time>
      </trkpt>
      <trkpt lat="49.20737" lon="-0.30235">
        <ele>22.641</ele>
        <time>2016-05-31T17:12:05Z</time>
      </trkpt>
      <trkpt lat="49.20711" lon="-0.30357">
        <ele>12.487</ele>
        <time>2016-05-31T17:12:25Z</time>
      </trkpt>
      <trkpt lat="49.20657" lon="-0.30461">
        <ele>8.966</ele>
        <time>2016-05-31T17:12:45Z</time>
      </trkpt>
      <trkpt lat="49.20577" lon="-0.30581">
        <ele>8.396</ele>
        <time>2016-05-31T17:13:05Z</time>
      </trkpt>
      <trkpt lat="49.20451" lon="-0.30714">
        <ele>7.831</ele>
        <time>2016-05-31T17:13:25Z</time>
      </trkpt>
      <trkpt lat="49.20394" lon="-0.30733">
        <ele>8.624</ele>
        <time>2016-05-31T17:13:45Z</time>
      </trkpt>
      <trkpt lat="49.20405" lon="-0.30825">
        <ele>6.708</ele>
        <time>2016-05-31T17:14:05Z</time>
      </trkpt>
      <trkpt lat="49.20364" lon="-0.30888">
        <ele>4.155</ele>
        <time>2016-05-31T17:14:25Z</time>
      </trkpt>
      <trkpt lat="49.20417" lon="-0.30967">
        <ele>4.291</ele>
        <time>2016-05-31T17:14:45Z</time>
      </trkpt>
      <trkpt lat="49.20457" lon="-0.30966">
        <ele>5.776</ele>
        <time>2016-05-31T17:15:05Z</time>
      </trkpt>
      <trkpt lat="49.20525" lon="-0.30952">
        <ele>5.419</ele>
        <time>2016-05-31T17:15:25Z</time>
      </trkpt>
      <trkpt lat="49.20509" lon="-0.31042">
        <ele>7.925</ele>
        <time>2016-05-31T17:15:45Z</time>
      </trkpt>
      <trkpt lat="49.20506" lon="-0.31102">
        <ele>6.887</ele>
        <time>2016-05-31T17:16:05Z</time>
      </trkpt>
      <trkpt lat="49.20511" lon="-0.31137">
        <ele>5.143</ele>
        <time>2016-05-31T17:16:25Z</time>
      </trkpt>
      <trkpt lat="49.20525" lon="-0.31183">
        <ele>3.482</ele>
        <time>2016-05-31T17:16:45Z</time>
      </trkpt>
      <trkpt lat="49.20576" lon="-0.31222">
        <ele>2.719</ele>
        <time>2016-05-31T17:17:05Z</time>
      </trkpt>
      <trkpt lat="49.20611" lon="-0.313">
        <ele>6.009</ele>
        <time>2016-05-31T17:17:25Z</time>
      </trkpt>
      <trkpt lat="49.20649" lon="-0.31398">
        <ele>4.319</ele>
        <time>2016-05-31T17:17:45Z</time>
      </trkpt>
      <trkpt lat="49.20694" lon="-0.31569">
        <ele>2.008</ele>
        <time>2016-05-31T17:18:05Z</time>
      </trkpt>
      <trkpt lat="49.20644" lon="-0.31593">
        <ele>2.617</ele>
        <time>2016-05-31T17:18:25Z</time>
      </trkpt>
      <trkpt lat="49.20627" lon="-0.31558">
        <ele>4.863</ele>
        <time>2016-05-31T17:18:45Z</time>
      </trkpt>
      <trkpt lat="49.19354" lon="-0.32317">
        <ele>8.098</ele>
        <time>2016-05-31T17:19:05Z</time>
      </trkpt>
      <trkpt lat="49.19053" lon="-0.32505">
        <ele>7.881</ele>
        <time>2016-05-31T17:19:25Z</time>
      </trkpt>
      <trkpt lat="49.18931" lon="-0.3262">
        <ele>11.297</ele>
        <time>2016-05-31T17:19:45Z</time>
      </trkpt>
      <trkpt lat="49.18814" lon="-0.3277">
        <ele>2.089</ele>
        <time>2016-05-31T17:20:05Z</time>
      </trkpt>
      <trkpt lat="49.18732" lon="-0.32898">
        <ele>5.375</ele>
        <time>2016-05-31T17:20:25Z</time>
      </trkpt>
      <trkpt lat="49.18625" lon="-0.3314">
        <ele>6.584</ele>
        <time>2016-05-31T17:20:45Z</time>
      </trkpt>
      <trkpt lat="49.18546" lon="-0.33319">
        <ele>8.018</ele>
        <time>2016-05-31T17:21:05Z</time>
      </trkpt>
      <trkpt lat="49.18497" lon="-0.33531">
        <ele>2.898</ele>
        <time>2016-05-31T17:21:25Z</time>
      </trkpt>
      <trkpt lat="49.18457" lon="-0.33851">
        <ele>3.517</ele>
        <time>2016-05-31T17:21:45Z</time>
      </trkpt>
      <trkpt lat="49.18453" lon="-0.3445">
        <ele>11.808</ele>
        <time>2016-05-31T17:22:05Z</time>
      </trkpt>
      <trkpt lat="49.18452" lon="-0.3494">
        <ele>6.437</ele>
        <time>2016-05-31T17:22:25Z</time>
      </trkpt>
      <trkpt lat="49.18442" lon="-0.35019">
        <ele>7.713</ele>
        <time>2016-05-31T17:22:45Z</time>
      </trkpt>
      <trkpt lat="49.18421" lon="-0.35097">
        <ele>9.588</ele>
        <time>2016-05-31T17:23:05Z</time>
      </trkpt>
      <trkpt lat="49.18401" lon="-0.35157">
        <ele>7.651</ele>
        <time>2016-05-31T17:23:25Z</time>
      </trkpt>
      <trkpt lat="49.18358" lon="-0.35212">
        <ele>6.477</ele>
        <time>2016-05-31T17:23:45Z</time>
      </trkpt>
      <trkpt lat="49.18304" lon="-0.35286">
        <ele>5.399</ele>
        <time>2016-05-31T17:24:05Z</time>
      </trkpt>
    </trkseg>
  </trk>
</gpx>